createdAt,value
2023-02-11T00:01:10.281Z,-7.80
2023-02-11T00:03:39.008Z,-7.87
2023-02-11T00:06:10.922Z,-7.85
2023-02-11T00:08:39.514Z,-7.79
2023-02-11T00:11:07.986Z,-7.80
2023-02-11T00:13:35.958Z,-7.80
2023-02-11T00:16:08.330Z,-7.81
2023-02-11T00:18:36.704Z,-7.78
2023-02-11T00:21:12.247Z,-7.74
2023-02-11T00:23:40.348Z,-7.72
2023-02-11T00:26:15.281Z,-7.79
2023-02-11T00:28:43.643Z,-7.88
2023-02-11T00:31:12.206Z,-7.93
2023-02-11T00:33:40.219Z,-7.92
2023-02-11T00:36:10.419Z,-8.01
2023-02-11T00:38:39.108Z,-8.11
2023-02-11T00:41:07.377Z,-8.09
2023-02-11T00:43:35.856Z,-8.12
2023-02-11T00:46:03.930Z,-8.15
2023-02-11T00:48:32.295Z,-8.15
2023-02-11T00:51:01.907Z,-8.15
2023-02-11T00:53:30.254Z,-8.14
2023-02-11T00:55:58.147Z,-8.11
2023-02-11T00:58:27.455Z,-8.06
2023-02-11T01:00:56.038Z,-8.00
2023-02-11T01:03:25.459Z,-8.00
2023-02-11T01:05:53.511Z,-8.03
2023-02-11T01:08:21.802Z,-8.09
2023-02-11T01:11:00.617Z,-8.17
2023-02-11T01:13:29.815Z,-8.25
2023-02-11T01:15:57.876Z,-8.31
2023-02-11T01:18:26.078Z,-8.36
2023-02-11T01:20:54.189Z,-8.40
2023-02-11T01:23:22.509Z,-8.45
2023-02-11T01:25:51.140Z,-8.46
2023-02-11T01:28:21.113Z,-8.47
2023-02-11T01:30:49.245Z,-8.43
2023-02-11T01:33:17.462Z,-8.38
2023-02-11T01:35:46.045Z,-8.32
2023-02-11T01:38:18.823Z,-8.33
2023-02-11T01:40:54.418Z,-8.34
2023-02-11T01:43:23.606Z,-8.34
2023-02-11T01:46:18.806Z,-8.36
2023-02-11T01:48:50.110Z,-8.33
2023-02-11T01:51:36.730Z,-8.34
2023-02-11T01:54:24.064Z,-8.39
2023-02-11T01:57:14.142Z,-8.44
2023-02-11T01:59:46.921Z,-8.45
2023-02-11T02:02:16.850Z,-8.45
2023-02-11T02:04:50.440Z,-8.54
2023-02-11T02:07:23.102Z,-8.68
2023-02-11T02:09:56.316Z,-8.79
2023-02-11T02:12:24.393Z,-8.87
2023-02-11T02:14:52.350Z,-8.92
2023-02-11T02:17:32.299Z,-8.96
2023-02-11T02:20:32.114Z,-8.97
2023-02-11T02:23:21.085Z,-9.00
2023-02-11T02:25:52.003Z,-9.03
2023-02-11T02:28:52.551Z,-9.05
2023-02-11T02:31:20.433Z,-9.09
2023-02-11T02:34:06.918Z,-9.09
2023-02-11T02:36:39.594Z,-9.02
2023-02-11T02:39:18.418Z,-8.97
2023-02-11T02:41:47.319Z,-8.91
2023-02-11T02:44:15.386Z,-8.85
2023-02-11T02:46:43.439Z,-8.81
2023-02-11T02:49:15.625Z,-8.84
2023-02-11T02:51:46.783Z,-8.84
2023-02-11T02:54:23.546Z,-8.83
2023-02-11T02:56:54.595Z,-8.86
2023-02-11T02:59:29.114Z,-8.91
2023-02-11T03:02:00.155Z,-8.96
2023-02-11T03:04:37.862Z,-8.95
2023-02-11T03:07:21.186Z,-8.96
2023-02-11T03:09:58.880Z,-9.01
2023-02-11T03:12:29.728Z,-9.03
2023-02-11T03:14:58.606Z,-9.05
2023-02-11T03:17:28.230Z,-9.11
2023-02-11T03:19:57.501Z,-9.17
2023-02-11T03:22:27.644Z,-9.18
2023-02-11T03:24:56.331Z,-9.26
2023-02-11T03:27:39.250Z,-9.33
2023-02-11T03:30:07.411Z,-9.41
2023-02-11T03:32:47.563Z,-9.40
2023-02-11T03:35:15.445Z,-9.38
2023-02-11T03:37:52.379Z,-9.40
2023-02-11T03:40:22.844Z,-9.40
2023-02-11T03:42:57.378Z,-9.40
2023-02-11T03:45:26.318Z,-9.38
2023-02-11T03:48:02.120Z,-9.42
2023-02-11T03:50:31.886Z,-9.45
2023-02-11T03:53:02.051Z,-9.47
2023-02-11T03:55:30.829Z,-9.52
2023-02-11T03:57:58.834Z,-9.61
2023-02-11T04:00:30.996Z,-9.66
2023-02-11T04:02:59.047Z,-9.66
2023-02-11T04:05:27.311Z,-9.71
2023-02-11T04:07:55.390Z,-9.72
2023-02-11T04:10:23.576Z,-9.72
2023-02-11T04:12:51.403Z,-9.73
2023-02-11T04:15:19.917Z,-9.76
2023-02-11T04:17:47.774Z,-9.77
2023-02-11T04:20:15.954Z,-9.77
2023-02-11T04:22:44.017Z,-9.72
2023-02-11T04:25:11.862Z,-9.70
2023-02-11T04:27:39.771Z,-9.68
2023-02-11T04:30:08.236Z,-9.66
2023-02-11T04:32:36.074Z,-9.63
2023-02-11T04:35:04.386Z,-9.67
2023-02-11T04:37:32.356Z,-9.76
2023-02-11T04:40:00.246Z,-9.83
2023-02-11T04:42:28.184Z,-9.80
2023-02-11T04:44:56.057Z,-9.82
2023-02-11T04:47:24.095Z,-9.83
2023-02-11T04:49:52.090Z,-9.81
2023-02-11T04:52:20.079Z,-9.81
2023-02-11T04:54:48.132Z,-9.78
2023-02-11T04:57:16.251Z,-9.79
2023-02-11T04:59:44.489Z,-9.81
2023-02-11T05:02:12.279Z,-9.83
2023-02-11T05:04:40.226Z,-9.83
2023-02-11T05:07:08.184Z,-9.85
2023-02-11T05:09:36.255Z,-9.82
2023-02-11T05:12:04.542Z,-9.75
2023-02-11T05:14:33.541Z,-9.69
2023-02-11T05:17:01.526Z,-9.65
2023-02-11T05:19:29.474Z,-9.62
2023-02-11T05:22:02.990Z,-9.62
2023-02-11T05:24:32.274Z,-9.63
2023-02-11T05:27:00.861Z,-9.71
2023-02-11T05:29:29.024Z,-9.80
2023-02-11T05:31:58.430Z,-9.86
2023-02-11T05:34:26.290Z,-9.92
2023-02-11T05:36:54.408Z,-9.99
2023-02-11T05:39:22.231Z,-10.02
2023-02-11T05:41:50.310Z,-10.02
2023-02-11T05:44:18.150Z,-9.98
2023-02-11T05:46:46.286Z,-9.94
2023-02-11T05:49:14.418Z,-9.93
2023-02-11T05:51:42.384Z,-9.90
2023-02-11T05:54:10.878Z,-9.82
2023-02-11T05:56:38.836Z,-9.75
2023-02-11T05:59:06.701Z,-9.68
2023-02-11T06:01:34.669Z,-9.68
2023-02-11T06:04:02.813Z,-9.68
2023-02-11T06:06:30.852Z,-9.73
2023-02-11T06:08:58.781Z,-9.76
2023-02-11T06:11:26.769Z,-9.77
2023-02-11T06:13:54.727Z,-9.78
2023-02-11T06:16:22.763Z,-9.76
2023-02-11T06:18:50.762Z,-9.68
2023-02-11T06:21:18.650Z,-9.58
2023-02-11T06:23:46.516Z,-9.51
2023-02-11T06:26:23.577Z,-9.42
2023-02-11T06:28:51.426Z,-9.33
2023-02-11T06:31:19.484Z,-9.28
2023-02-11T06:33:47.495Z,-9.16
2023-02-11T06:36:16.688Z,-9.09
2023-02-11T06:38:45.267Z,-9.08
2023-02-11T06:41:14.774Z,-9.06
2023-02-11T06:43:43.152Z,-9.01
2023-02-11T06:46:11.398Z,-8.91
2023-02-11T06:48:39.607Z,-8.78
2023-02-11T06:51:13.221Z,-8.67
2023-02-11T06:53:43.126Z,-8.49
2023-02-11T06:56:15.600Z,-8.32
2023-02-11T06:58:43.675Z,-8.23
2023-02-11T07:01:13.680Z,-8.15
2023-02-11T07:03:43.314Z,-8.01
2023-02-11T07:06:12.807Z,-7.84
2023-02-11T07:08:42.721Z,-7.70
2023-02-11T07:11:19.385Z,-7.53
2023-02-11T07:13:48.086Z,-7.32
2023-02-11T07:16:17.572Z,-7.15
2023-02-11T07:18:46.259Z,-7.00
2023-02-11T07:21:15.154Z,-6.84
2023-02-11T07:23:43.126Z,-6.64
2023-02-11T07:26:12.115Z,-6.45
2023-02-11T07:28:41.196Z,-6.25
2023-02-11T07:31:13.853Z,-6.07
2023-02-11T07:33:42.265Z,-5.87
2023-02-11T07:36:10.801Z,-5.67
2023-02-11T07:38:39.337Z,-5.43
2023-02-11T07:41:09.452Z,-5.18
2023-02-11T07:43:38.384Z,-5.07
2023-02-11T07:46:07.848Z,-5.05
2023-02-11T07:48:35.926Z,-5.02
2023-02-11T07:51:06.654Z,-4.92
2023-02-11T07:53:34.622Z,-4.79
2023-02-11T07:56:03.512Z,-4.65
2023-02-11T07:58:31.588Z,-4.53
2023-02-11T08:01:03.731Z,-4.40
2023-02-11T08:03:32.230Z,-4.23
2023-02-11T08:06:04.095Z,-4.06
2023-02-11T08:08:32.572Z,-4.00
2023-02-11T08:11:05.665Z,-3.88
2023-02-11T08:13:33.836Z,-3.81
2023-02-11T08:16:01.953Z,-3.74
2023-02-11T08:18:30.490Z,-3.60
2023-02-11T08:21:04.110Z,-3.41
2023-02-11T08:23:32.062Z,-3.34
2023-02-11T08:26:04.329Z,-3.26
2023-02-11T08:28:32.411Z,-3.13
2023-02-11T08:31:04.745Z,-3.00
2023-02-11T08:33:33.200Z,-2.89
2023-02-11T08:36:02.047Z,-2.69
2023-02-11T08:38:29.911Z,-2.40
2023-02-11T08:40:59.717Z,-2.06
2023-02-11T08:43:27.701Z,-1.72
2023-02-11T08:45:55.691Z,-1.39
2023-02-11T08:48:23.832Z,-1.00
2023-02-11T08:50:52.004Z,-0.58
2023-02-11T08:53:19.970Z,-0.13
2023-02-11T08:55:51.430Z,0.34
2023-02-11T08:58:20.325Z,0.63
2023-02-11T09:00:49.557Z,0.92
2023-02-11T09:03:17.913Z,1.30
2023-02-11T09:05:47.106Z,1.61
2023-02-11T09:08:15.987Z,1.89
2023-02-11T09:10:44.167Z,2.31
2023-02-11T09:13:12.950Z,2.77
2023-02-11T09:15:41.016Z,2.93
2023-02-11T09:18:08.935Z,3.26
2023-02-11T09:20:36.856Z,3.42
2023-02-11T09:23:04.822Z,3.68
2023-02-11T09:25:32.787Z,3.70
2023-02-11T09:28:00.991Z,3.79
2023-02-11T09:30:29.006Z,3.96
2023-02-11T09:32:57.119Z,4.02
2023-02-11T09:35:25.087Z,3.77
2023-02-11T09:37:53.198Z,3.64
2023-02-11T09:40:21.642Z,4.27
2023-02-11T09:42:49.556Z,4.53
2023-02-11T09:45:19.744Z,4.93
2023-02-11T09:47:58.242Z,5.20
2023-02-11T09:50:31.131Z,5.07
2023-02-11T09:53:03.675Z,5.40
2023-02-11T09:55:38.021Z,5.41
2023-02-11T09:58:11.921Z,5.21
2023-02-11T10:00:42.657Z,5.21
2023-02-11T10:03:13.252Z,5.55
2023-02-11T10:06:04.407Z,5.89
2023-02-11T10:08:52.489Z,6.24
2023-02-11T10:11:31.714Z,6.44
2023-02-11T10:14:21.764Z,6.70
2023-02-11T10:17:09.187Z,7.25
2023-02-11T10:19:43.405Z,7.70
2023-02-11T10:22:15.736Z,7.73
2023-02-11T10:24:48.764Z,8.12
2023-02-11T10:27:19.636Z,8.24
2023-02-11T10:29:53.653Z,7.66
2023-02-11T10:32:31.730Z,7.17
2023-02-11T10:35:02.059Z,7.63
2023-02-11T10:37:30.633Z,7.55
2023-02-11T10:39:58.710Z,7.50
2023-02-11T10:42:27.387Z,7.34
2023-02-11T10:44:57.821Z,7.35
2023-02-11T10:47:28.392Z,7.49
2023-02-11T10:50:03.332Z,7.76
2023-02-11T10:52:31.366Z,8.15
2023-02-11T10:55:18.057Z,8.59
2023-02-11T10:58:00.372Z,8.43
2023-02-11T11:00:34.248Z,8.81
2023-02-11T11:03:03.773Z,9.15
2023-02-11T11:05:33.483Z,9.46
2023-02-11T11:08:09.079Z,9.51
2023-02-11T11:10:44.546Z,9.51
2023-02-11T11:13:31.184Z,9.52
2023-02-11T11:16:11.451Z,9.81
2023-02-11T11:18:40.535Z,9.99
2023-02-11T11:21:13.938Z,10.07
2023-02-11T11:23:47.603Z,9.77
2023-02-11T11:26:16.628Z,9.49
2023-02-11T11:28:56.478Z,9.71
2023-02-11T11:31:27.324Z,10.02
2023-02-11T11:33:57.141Z,10.45
2023-02-11T11:36:32.418Z,10.83
2023-02-11T11:39:02.488Z,10.62
2023-02-11T11:41:34.439Z,10.50
2023-02-11T11:44:02.413Z,10.37
2023-02-11T11:46:30.756Z,9.93
2023-02-11T11:49:13.911Z,9.50
2023-02-11T11:51:44.350Z,9.82
2023-02-11T11:54:13.945Z,9.87
2023-02-11T11:56:56.658Z,9.76
2023-02-11T11:59:24.838Z,9.50
2023-02-11T12:02:06.892Z,9.44
2023-02-11T12:04:56.917Z,9.16
2023-02-11T12:07:25.955Z,9.35
2023-02-11T12:10:08.353Z,9.42
2023-02-11T12:12:44.185Z,9.26
2023-02-11T12:15:34.586Z,9.43
2023-02-11T12:18:11.650Z,9.46
2023-02-11T12:21:04.508Z,9.30
2023-02-11T12:23:35.444Z,9.58
2023-02-11T12:26:12.226Z,9.91
2023-02-11T12:28:45.007Z,10.43
2023-02-11T12:31:28.307Z,9.56
2023-02-11T12:34:04.222Z,9.26
2023-02-11T12:36:42.399Z,9.62
2023-02-11T12:39:13.550Z,9.59
2023-02-11T12:42:26.155Z,9.68
2023-02-11T12:44:59.973Z,9.57
2023-02-11T12:47:46.579Z,9.51
2023-02-11T12:50:17.410Z,9.48
2023-02-11T12:53:16.812Z,9.70
2023-02-11T12:55:47.056Z,9.15
2023-02-11T12:58:17.967Z,8.57
2023-02-11T13:00:48.845Z,8.24
2023-02-11T13:03:24.157Z,8.11
2023-02-11T13:05:54.878Z,7.67
2023-02-11T13:08:44.156Z,7.47
2023-02-11T13:11:15.180Z,7.71
2023-02-11T13:13:47.477Z,7.93
2023-02-11T13:16:35.565Z,8.36
2023-02-11T13:19:27.753Z,8.25
2023-02-11T13:22:07.996Z,7.43
2023-02-11T13:24:53.586Z,6.95
2023-02-11T13:27:24.532Z,6.94
2023-02-11T13:30:12.977Z,7.34
2023-02-11T13:32:56.316Z,7.19
2023-02-11T13:35:34.962Z,7.07
2023-02-11T13:38:04.936Z,7.03
2023-02-11T13:40:37.212Z,6.86
2023-02-11T13:43:06.936Z,6.91
2023-02-11T13:45:34.911Z,7.17
2023-02-11T13:48:04.933Z,7.37
2023-02-11T13:50:37.481Z,7.46
2023-02-11T13:53:08.173Z,7.26
2023-02-11T13:55:36.483Z,6.62
2023-02-11T13:58:13.672Z,6.07
2023-02-11T14:00:47.485Z,5.58
2023-02-11T14:04:00.501Z,5.18
2023-02-11T14:06:47.373Z,4.94
2023-02-11T14:09:17.380Z,4.70
2023-02-11T14:11:45.401Z,4.28
2023-02-11T14:14:16.238Z,4.02
2023-02-11T14:17:02.219Z,3.49
2023-02-11T14:19:34.215Z,3.14
2023-02-11T14:22:06.867Z,3.02
2023-02-11T14:24:37.510Z,2.70
2023-02-11T14:27:07.728Z,2.40
2023-02-11T14:29:38.758Z,1.95
2023-02-11T14:32:26.952Z,1.92
2023-02-11T14:35:01.032Z,1.95
2023-02-11T14:37:50.362Z,1.81
2023-02-11T14:40:23.789Z,1.64
2023-02-11T14:42:54.145Z,1.43
2023-02-11T14:45:27.532Z,1.40
2023-02-11T14:48:00.399Z,1.37
2023-02-11T14:50:33.796Z,1.29
2023-02-11T14:53:03.207Z,1.18
2023-02-11T14:55:33.730Z,1.13
2023-02-11T14:58:05.387Z,1.01
2023-02-11T15:00:33.756Z,0.86
2023-02-11T15:03:01.694Z,0.72
2023-02-11T15:05:30.119Z,0.76
2023-02-11T15:07:59.422Z,0.71
2023-02-11T15:10:42.535Z,0.43
2023-02-11T15:13:16.683Z,0.49
2023-02-11T15:15:46.628Z,0.53
2023-02-11T15:18:21.383Z,0.41
2023-02-11T15:20:50.474Z,0.33
2023-02-11T15:23:23.590Z,0.27
2023-02-11T15:25:56.075Z,0.12
2023-02-11T15:28:32.362Z,0.19
2023-02-11T15:31:05.593Z,0.20
2023-02-11T15:33:33.789Z,0.06
2023-02-11T15:36:05.240Z,0.09
2023-02-11T15:38:33.363Z,0.01
2023-02-11T15:41:02.213Z,0.00
2023-02-11T15:43:46.660Z,0.04
2023-02-11T15:46:20.025Z,0.01
2023-02-11T15:48:49.974Z,-0.06
2023-02-11T15:51:21.879Z,-0.13
2023-02-11T15:53:53.377Z,-0.20
2023-02-11T15:56:25.229Z,-0.22
2023-02-11T15:58:55.663Z,-0.22
2023-02-11T16:01:34.279Z,-0.28
2023-02-11T16:04:03.614Z,-0.27
2023-02-11T16:06:42.412Z,-0.21
2023-02-11T16:09:11.196Z,-0.18
2023-02-11T16:11:48.074Z,-0.15
2023-02-11T16:14:22.790Z,-0.09
2023-02-11T16:16:52.512Z,-0.05
2023-02-11T16:19:24.948Z,-0.04
2023-02-11T16:21:54.903Z,-0.02
2023-02-11T16:24:28.298Z,0.02
2023-02-11T16:27:03.164Z,0.03
2023-02-11T16:29:33.038Z,0.06
2023-02-11T16:32:16.256Z,0.11
2023-02-11T16:34:44.747Z,0.13
2023-02-11T16:37:12.632Z,0.15
2023-02-11T16:39:40.688Z,0.15
2023-02-11T16:42:09.981Z,0.11
2023-02-11T16:44:38.156Z,0.04
2023-02-11T16:47:07.966Z,0.01
2023-02-11T16:49:37.273Z,-0.03
2023-02-11T16:52:12.820Z,-0.05
2023-02-11T16:54:40.741Z,-0.09
2023-02-11T16:57:29.841Z,-0.13
2023-02-11T16:59:59.386Z,-0.15
2023-02-11T17:02:30.691Z,-0.19
2023-02-11T17:04:59.910Z,-0.19
2023-02-11T17:07:27.986Z,-0.19
2023-02-11T17:09:56.666Z,-0.23
2023-02-11T17:12:25.632Z,-0.26
2023-02-11T17:14:54.044Z,-0.28
2023-02-11T17:17:24.966Z,-0.28
2023-02-11T17:19:52.928Z,-0.29
2023-02-11T17:22:20.905Z,-0.27
2023-02-11T17:24:48.879Z,-0.24
2023-02-11T17:27:17.457Z,-0.26
2023-02-11T17:29:45.317Z,-0.28
2023-02-11T17:32:13.343Z,-0.38
2023-02-11T17:34:41.318Z,-0.43
2023-02-11T17:37:09.450Z,-0.45
2023-02-11T17:39:38.242Z,-0.43
2023-02-11T17:42:06.809Z,-0.41
2023-02-11T17:44:34.771Z,-0.37
2023-02-11T17:47:03.154Z,-0.35
2023-02-11T17:49:31.016Z,-0.34
2023-02-11T17:51:58.833Z,-0.32
2023-02-11T17:54:26.747Z,-0.33
2023-02-11T17:56:57.803Z,-0.37
2023-02-11T17:59:26.679Z,-0.42
2023-02-11T18:01:54.652Z,-0.44
2023-02-11T18:04:22.696Z,-0.46
2023-02-11T18:06:53.602Z,-0.46
2023-02-11T18:09:21.746Z,-0.45
2023-02-11T18:11:52.666Z,-0.44
2023-02-11T18:14:21.257Z,-0.42
2023-02-11T18:16:50.457Z,-0.39
2023-02-11T18:19:19.048Z,-0.36
2023-02-11T18:21:49.051Z,-0.35
2023-02-11T18:24:17.948Z,-0.34
2023-02-11T18:26:45.933Z,-0.34
2023-02-11T18:29:13.884Z,-0.34
2023-02-11T18:31:42.003Z,-0.35
2023-02-11T18:34:11.357Z,-0.35
2023-02-11T18:36:39.636Z,-0.34
2023-02-11T18:39:07.628Z,-0.34
2023-02-11T18:41:35.582Z,-0.34
2023-02-11T18:44:05.127Z,-0.36
2023-02-11T18:46:33.673Z,-0.39
2023-02-11T18:49:01.637Z,-0.42
2023-02-11T18:51:32.484Z,-0.46
2023-02-11T18:54:01.403Z,-0.49
2023-02-11T18:56:29.377Z,-0.51
2023-02-11T18:58:58.043Z,-0.53
2023-02-11T19:01:27.535Z,-0.55
2023-02-11T19:03:57.459Z,-0.55
2023-02-11T19:06:27.566Z,-0.55
2023-02-11T19:08:59.320Z,-0.55
2023-02-11T19:11:47.102Z,-0.55
2023-02-11T19:14:16.037Z,-0.55
2023-02-11T19:16:46.138Z,-0.55
2023-02-11T19:19:14.427Z,-0.56
2023-02-11T19:21:43.838Z,-0.57
2023-02-11T19:24:12.779Z,-0.58
2023-02-11T19:26:40.581Z,-0.59
2023-02-11T19:29:08.876Z,-0.61
2023-02-11T19:31:36.992Z,-0.61
2023-02-11T19:34:05.536Z,-0.60
2023-02-11T19:36:33.904Z,-0.60
2023-02-11T19:39:02.486Z,-0.62
2023-02-11T19:41:30.778Z,-0.63
2023-02-11T19:43:58.756Z,-0.63
2023-02-11T19:46:27.981Z,-0.65
2023-02-11T19:48:56.310Z,-0.67
2023-02-11T19:51:24.279Z,-0.70
2023-02-11T19:53:52.458Z,-0.72
2023-02-11T19:56:21.036Z,-0.72
2023-02-11T19:58:49.052Z,-0.74
2023-02-11T20:01:19.701Z,-0.75
2023-02-11T20:03:51.906Z,-0.76
2023-02-11T20:06:23.497Z,-0.76
2023-02-11T20:09:02.089Z,-0.78
2023-02-11T20:11:31.085Z,-0.80
2023-02-11T20:13:59.360Z,-0.81
2023-02-11T20:16:44.568Z,-0.80
2023-02-11T20:19:19.506Z,-0.80
2023-02-11T20:21:48.754Z,-0.81
2023-02-11T20:24:17.540Z,-0.82
2023-02-11T20:26:48.537Z,-0.83
2023-02-11T20:29:17.671Z,-0.83
2023-02-11T20:31:46.009Z,-0.83
2023-02-11T20:34:15.283Z,-0.84
2023-02-11T20:36:43.843Z,-0.88
2023-02-11T20:39:11.876Z,-0.89
2023-02-11T20:41:40.078Z,-0.90
2023-02-11T20:44:10.265Z,-0.92
2023-02-11T20:46:40.411Z,-0.92
2023-02-11T20:49:11.381Z,-0.92
2023-02-11T20:51:39.746Z,-0.92
2023-02-11T20:54:07.815Z,-0.92
2023-02-11T20:56:37.061Z,-0.91
2023-02-11T20:59:06.082Z,-0.92
2023-02-11T21:01:34.158Z,-0.93
2023-02-11T21:04:04.297Z,-0.93
2023-02-11T21:06:36.779Z,-0.95
2023-02-11T21:09:05.926Z,-0.98
2023-02-11T21:11:34.247Z,-1.00
2023-02-11T21:14:02.524Z,-1.02
2023-02-11T21:16:31.554Z,-1.01
2023-02-11T21:19:00.760Z,-1.01
2023-02-11T21:21:28.987Z,-1.01
2023-02-11T21:23:58.539Z,-1.02
2023-02-11T21:26:26.466Z,-1.04
2023-02-11T21:28:55.365Z,-1.04
2023-02-11T21:31:24.999Z,-1.04
2023-02-11T21:33:55.299Z,-1.04
2023-02-11T21:36:23.892Z,-1.05
2023-02-11T21:38:52.156Z,-1.06
2023-02-11T21:41:22.616Z,-1.06
2023-02-11T21:43:51.168Z,-1.06
2023-02-11T21:46:19.892Z,-1.07
2023-02-11T21:48:48.371Z,-1.07
2023-02-11T21:51:17.965Z,-1.07
2023-02-11T21:53:46.320Z,-1.07
2023-02-11T21:56:15.732Z,-1.06
2023-02-11T21:58:44.616Z,-1.06
2023-02-11T22:01:13.074Z,-1.06
2023-02-11T22:03:41.994Z,-1.08
2023-02-11T22:06:11.589Z,-1.13
2023-02-11T22:08:39.979Z,-1.16
2023-02-11T22:11:09.882Z,-1.20
2023-02-11T22:13:37.966Z,-1.25
2023-02-11T22:16:07.565Z,-1.27
2023-02-11T22:18:35.607Z,-1.28
2023-02-11T22:21:05.246Z,-1.31
2023-02-11T22:23:33.433Z,-1.35
2023-02-11T22:26:05.998Z,-1.37
2023-02-11T22:28:35.583Z,-1.37
2023-02-11T22:31:03.592Z,-1.37
2023-02-11T22:33:31.541Z,-1.37
2023-02-11T22:36:00.424Z,-1.35
2023-02-11T22:38:31.774Z,-1.34
2023-02-11T22:41:00.669Z,-1.32
2023-02-11T22:43:28.737Z,-1.30
2023-02-11T22:46:00.127Z,-1.29
2023-02-11T22:48:28.155Z,-1.30
2023-02-11T22:50:56.334Z,-1.30
2023-02-11T22:53:25.733Z,-1.29
2023-02-11T22:55:54.172Z,-1.28
2023-02-11T22:58:22.390Z,-1.26
2023-02-11T23:00:50.356Z,-1.27
2023-02-11T23:03:18.325Z,-1.27
2023-02-11T23:05:46.497Z,-1.28
2023-02-11T23:08:14.362Z,-1.27
2023-02-11T23:10:42.325Z,-1.32
2023-02-11T23:13:12.972Z,-1.31
2023-02-11T23:15:42.057Z,-1.29
2023-02-11T23:18:10.853Z,-1.27
2023-02-11T23:20:40.259Z,-1.25
2023-02-11T23:23:08.423Z,-1.23
2023-02-11T23:25:41.722Z,-1.21
2023-02-11T23:28:10.196Z,-1.21
2023-02-11T23:30:38.281Z,-1.20
2023-02-11T23:33:06.249Z,-1.18
2023-02-11T23:35:34.215Z,-1.18
2023-02-11T23:38:02.214Z,-1.18
2023-02-11T23:40:30.257Z,-1.19
2023-02-11T23:42:58.225Z,-1.21
2023-02-11T23:45:26.302Z,-1.22
2023-02-11T23:47:54.282Z,-1.25
2023-02-11T23:50:22.341Z,-1.26
2023-02-11T23:52:50.237Z,-1.27
2023-02-11T23:55:18.173Z,-1.27
2023-02-11T23:57:46.068Z,-1.29
